Time;durP1;ratioP1;P1;durP2;ratioP2;P2;SDS_P1;SDS_P2;PMS_P1;PMS_P2;Temp;Humidity;BMP_temperature;BMP_pressure;BME280_temperature;BME280_humidity;BME280_pressure;Samples;Min_cycle;Max_cycle;Signal;HPM_P1;HPM_P2
2022/11/08 00:01:52;;;;;;;;;;;;;;;8.68;78.87;98060.19;5133002;27;19976;-57
2022/11/08 00:04:21;;;;;;;;;;;;;;;8.67;78.56;98051.25;5133610;27;19927;-57
2022/11/08 00:15:08;;;;;;;;;;;;;;;8.49;79.27;98047.47;5120494;27;19923;-57
2022/11/08 00:17:37;;;;;;;;;;;;;;;8.49;79.24;98043.97;5112039;27;19933;-57
2022/11/08 00:20:06;;;;;;;;;;;;;;;8.47;79.34;98046.16;5134828;27;19967;-57
2022/11/08 00:22:36;;;;;;;;;;;;;;;8.47;79.29;98038.88;5134345;27;19923;-57
2022/11/08 00:25:04;;;;;;;;;;;;;;;8.50;79.01;98037.47;5129292;27;20303;-57
2022/11/08 00:27:31;;;;;;;;;;;;;;;8.47;78.88;98038.03;5111892;27;19927;-57
2022/11/08 00:30:00;;;;;;;;;;;;;;;8.48;78.78;98037.75;5140509;27;19930;-57
2022/11/08 00:32:28;;;;;;;;;;;;;;;8.40;78.89;98038.41;5131147;27;20407;-57
2022/11/08 00:34:58;;;;;;;;;;;;;;;8.44;79.05;98041.34;5129160;27;19931;-57
2022/11/08 00:37:26;;;;;;;;;;;;;;;8.42;78.87;98043.56;5123792;27;20003;-57
2022/11/08 00:40:19;;;;;;;;;;;;;;;8.33;79.27;98041.47;5130881;27;20396;-57
2022/11/08 00:42:48;;;;;;;;;;;;;;;8.44;78.81;98046.75;5128485;27;19928;-57
2022/11/08 00:45:16;;;;;;;;;;;;;;;8.39;78.56;98044.94;5132174;27;19935;-58
2022/11/08 00:47:46;;;;;;;;;;;;;;;8.38;78.82;98044.13;5134692;27;19928;-57
2022/11/08 00:50:16;;;;;;;;;;;;;;;8.33;78.67;98041.47;5129138;27;19924;-57
2022/11/08 00:52:44;;;;;;;;;;;;;;;8.32;78.57;98042.56;5135231;27;19923;-57
2022/11/08 00:55:16;;;;;;;;;;;;;;;8.19;79.07;98040.56;5131412;27;19931;-57
2022/11/08 00:57:44;;;;;;;;;;;;;;;8.24;78.90;98037.78;5112706;27;19992;-58
2022/11/08 01:00:27;;;;;;;;;;;;;;;8.29;78.59;98035.00;5132328;27;19927;-57
2022/11/08 01:05:37;;;;;;;;;;;;;;;8.26;78.63;98040.22;5130466;27;20291;-57
2022/11/08 01:08:05;;;;;;;;;;;;;;;8.22;78.75;98039.19;5131883;27;19962;-57
2022/11/08 01:10:34;;;;;;;;;;;;;;;8.20;78.81;98039.47;5131323;27;19938;-57
2022/11/08 01:13:02;;;;;;;;;;;;;;;8.17;78.89;98029.25;5131647;27;19932;-57
2022/11/08 01:15:35;;;;;;;;;;;;;;;8.17;78.96;98031.94;5122155;27;19935;-57
2022/11/08 01:18:06;;;;;;;;;;;;;;;8.18;78.78;98032.75;5142574;27;19923;-57
2022/11/08 01:20:37;;;;;;;;;;;;;;;8.12;78.90;98037.44;5125843;28;19951;-57
2022/11/08 01:23:05;;;;;;;;;;;;;;;8.11;79.06;98031.22;5135044;27;19924;-58
2022/11/08 01:25:35;;;;;;;;;;;;;;;8.09;79.19;98036.09;5141684;27;19930;-57
2022/11/08 01:28:04;;;;;;;;;;;;;;;8.10;78.95;98032.31;5125515;27;19968;-57
2022/11/08 01:30:32;;;;;;;;;;;;;;;8.12;78.85;98030.13;5123363;27;19992;-58
2022/11/08 01:33:02;;;;;;;;;;;;;;;8.07;78.94;98034.81;5131017;27;19924;-57
2022/11/08 01:35:31;;;;;;;;;;;;;;;8.00;79.30;98031.66;5133306;27;19950;-57
2022/11/08 01:37:59;;;;;;;;;;;;;;;7.97;79.41;98034.94;5137057;27;20321;-57
2022/11/08 01:40:28;;;;;;;;;;;;;;;7.96;79.49;98039.53;5130238;27;19995;-58
2022/11/08 01:42:56;;;;;;;;;;;;;;;8.04;79.12;98035.38;5134804;27;19927;-57
2022/11/08 01:45:50;;;;;;;;;;;;;;;7.99;79.26;98030.03;5141893;27;20417;-57
2022/11/08 01:48:20;;;;;;;;;;;;;;;8.01;79.02;98020.53;5135965;27;19934;-57
2022/11/08 01:51:13;;;;;;;;;;;;;;;7.99;79.18;98019.22;5145428;27;19935;-57
2022/11/08 01:53:42;;;;;;;;;;;;;;;8.00;79.03;98028.94;5136734;27;20219;-57
2022/11/08 01:59:02;;;;;;;;;;;;;;;7.92;79.72;98016.88;5134944;27;19924;-57
2022/11/08 02:01:33;;;;;;;;;;;;;;;7.68;80.42;98014.22;5134564;27;20353;-57
2022/11/08 02:04:03;;;;;;;;;;;;;;;7.73;80.34;98010.66;5137329;27;19976;-57
2022/11/08 02:06:30;;;;;;;;;;;;;;;7.77;79.78;98015.16;5136700;27;19938;-57
2022/11/08 02:08:58;;;;;;;;;;;;;;;7.76;79.69;98013.56;5134490;27;19962;-58
2022/11/08 02:11:26;;;;;;;;;;;;;;;7.76;79.90;98005.44;5136552;27;19924;-57
2022/11/08 02:13:55;;;;;;;;;;;;;;;7.79;79.48;98004.88;5135639;27;19977;-57
2022/11/08 02:16:23;;;;;;;;;;;;;;;7.68;79.80;98003.41;5132596;27;19928;-58
2022/11/08 02:18:51;;;;;;;;;;;;;;;7.69;79.86;97994.19;5131540;27;19969;-57
2022/11/08 02:21:23;;;;;;;;;;;;;;;7.74;79.59;97990.63;5133745;27;19927;-57
2022/11/08 02:23:52;;;;;;;;;;;;;;;7.74;79.46;97983.31;5116058;27;19949;-57
2022/11/08 02:26:21;;;;;;;;;;;;;;;7.69;79.73;97977.97;5138283;27;19963;-57
2022/11/08 02:28:49;;;;;;;;;;;;;;;7.67;79.42;97974.75;5117070;27;19931;-58
2022/11/08 02:31:19;;;;;;;;;;;;;;;7.69;79.63;97966.34;5133079;27;19927;-56
2022/11/08 02:33:47;;;;;;;;;;;;;;;7.68;79.43;97973.66;5134802;27;19923;-57
2022/11/08 02:42:02;;;;;;;;;;;;;;;7.57;79.76;97967.56;5138475;27;19928;-57
2022/11/08 02:44:30;;;;;;;;;;;;;;;7.58;79.45;97962.97;5117145;27;19927;-57
2022/11/08 02:46:58;;;;;;;;;;;;;;;7.58;79.27;97966.47;5134732;27;19981;-57
2022/11/08 02:49:26;;;;;;;;;;;;;;;7.56;79.50;97955.16;5135743;27;19927;-57
2022/11/08 02:51:54;;;;;;;;;;;;;;;7.50;79.49;97953.59;5132766;27;19923;-57
2022/11/08 02:54:24;;;;;;;;;;;;;;;7.49;79.82;97959.28;5133260;27;20376;-57
2022/11/08 02:56:56;;;;;;;;;;;;;;;7.51;79.48;97959.78;5136217;27;20360;-57
2022/11/08 02:59:24;;;;;;;;;;;;;;;7.43;79.93;97958.56;5111116;28;19928;-57
2022/11/08 03:01:53;;;;;;;;;;;;;;;7.43;79.67;97949.66;5106188;27;20379;-57
2022/11/08 03:04:21;;;;;;;;;;;;;;;7.35;80.11;97951.91;5115010;27;19923;-61
2022/11/08 03:06:49;;;;;;;;;;;;;;;7.41;79.99;97954.53;5115787;27;19924;-57
2022/11/08 03:09:17;;;;;;;;;;;;;;;7.43;80.11;97955.84;5112478;27;19924;-56
2022/11/08 03:11:46;;;;;;;;;;;;;;;7.45;79.52;97952.84;5111896;27;20291;-57
2022/11/08 03:14:14;;;;;;;;;;;;;;;7.41;79.50;97962.66;5113890;27;19924;-57
2022/11/08 03:16:42;;;;;;;;;;;;;;;7.35;79.60;97960.00;5114426;27;19923;-57
2022/11/08 03:19:12;;;;;;;;;;;;;;;7.32;79.89;97963.28;5109125;27;19924;-57
2022/11/08 03:21:41;;;;;;;;;;;;;;;7.21;80.50;97963.69;5114644;27;20433;-57
2022/11/08 03:24:10;;;;;;;;;;;;;;;7.22;80.49;97960.69;5106330;28;20023;-57
2022/11/08 03:26:38;;;;;;;;;;;;;;;7.30;80.35;97965.47;5105704;28;19924;-58
2022/11/08 03:32:24;;;;;;;;;;;;;;;7.30;79.97;97959.28;5109913;27;19933;-57
2022/11/08 03:34:52;;;;;;;;;;;;;;;7.28;79.55;97962.25;5114090;27;19927;-57
2022/11/08 03:37:23;;;;;;;;;;;;;;;7.18;80.14;97959.66;5114823;27;20371;-57
2022/11/08 03:39:51;;;;;;;;;;;;;;;6.76;82.17;97955.78;5113158;27;19924;-57
2022/11/08 03:42:19;;;;;;;;;;;;;;;7.04;81.44;97950.66;5115390;27;19928;-57
2022/11/08 03:44:48;;;;;;;;;;;;;;;7.07;81.07;97952.75;5113904;27;19927;-57
2022/11/08 03:47:16;;;;;;;;;;;;;;;7.12;80.71;97950.00;5116427;27;19969;-57
2022/11/08 03:49:44;;;;;;;;;;;;;;;7.16;80.39;97955.66;5112526;28;20281;-57
2022/11/08 03:52:12;;;;;;;;;;;;;;;7.14;80.29;97955.94;5110911;28;19949;-58
2022/11/08 03:54:40;;;;;;;;;;;;;;;7.08;80.52;97959.75;5112152;28;19931;-57
2022/11/08 03:57:08;;;;;;;;;;;;;;;7.10;80.20;97960.31;5112990;27;20563;-57
2022/11/08 03:59:37;;;;;;;;;;;;;;;7.02;80.47;97959.00;5121186;27;19934;-57
2022/11/08 04:02:07;;;;;;;;;;;;;;;7.03;80.33;97960.66;5135087;27;19946;-57
2022/11/08 04:04:35;;;;;;;;;;;;;;;7.07;80.41;97958.16;5123104;27;19938;-57
2022/11/08 04:07:03;;;;;;;;;;;;;;;7.00;80.59;97955.00;5134389;27;19934;-57
2022/11/08 04:09:31;;;;;;;;;;;;;;;6.91;81.06;97945.91;5128117;27;19923;-57
2022/11/08 04:23:26;;;;;;;;;;;;;;;6.98;80.48;97951.81;5130703;27;19930;-57
2022/11/08 04:25:55;;;;;;;;;;;;;;;6.99;80.47;97951.50;5117428;27;20383;-57
2022/11/08 04:28:25;;;;;;;;;;;;;;;6.97;80.59;97947.47;5132650;27;19923;-57
2022/11/08 04:30:54;;;;;;;;;;;;;;;6.98;80.69;97951.81;5134001;27;19935;-57
2022/11/08 04:33:24;;;;;;;;;;;;;;;6.86;80.94;97945.97;5125107;27;19931;-57
2022/11/08 04:35:52;;;;;;;;;;;;;;;6.88;80.91;97935.69;5118897;27;19966;-57
2022/11/08 04:38:47;;;;;;;;;;;;;;;6.91;80.67;97937.81;5127074;27;19975;-57
2022/11/08 04:41:15;;;;;;;;;;;;;;;6.89;80.83;97932.72;5132371;27;20296;-57
2022/11/08 04:43:43;;;;;;;;;;;;;;;6.91;80.64;97940.50;5117091;27;19928;-57
2022/11/08 04:46:11;;;;;;;;;;;;;;;6.89;80.62;97937.31;5139389;27;19987;-57
2022/11/08 04:48:41;;;;;;;;;;;;;;;6.87;80.62;97934.06;5143476;27;20424;-57
2022/11/08 04:51:11;;;;;;;;;;;;;;;6.81;80.77;97942.22;5121867;27;20404;-58
2022/11/08 04:53:39;;;;;;;;;;;;;;;6.74;81.03;97936.38;5132957;27;19939;-57
2022/11/08 04:56:08;;;;;;;;;;;;;;;6.80;80.60;97934.41;5151865;27;19930;-58
2022/11/08 04:59:01;;;;;;;;;;;;;;;6.78;80.60;97932.00;5130213;27;19931;-57
2022/11/08 05:01:30;;;;;;;;;;;;;;;6.80;80.37;97935.22;5125468;27;19955;-57
2022/11/08 05:04:00;;;;;;;;;;;;;;;6.79;80.38;97922.81;5117876;27;19931;-57
2022/11/08 05:06:29;;;;;;;;;;;;;;;6.79;80.38;97928.22;5115564;27;19923;-57
2022/11/08 05:08:57;;;;;;;;;;;;;;;6.77;80.74;97919.59;5123726;27;19968;-57
2022/11/08 05:11:25;;;;;;;;;;;;;;;6.79;80.56;97916.59;5119078;27;19948;-57
2022/11/08 05:13:54;;;;;;;;;;;;;;;6.76;80.33;97911.75;5126211;27;19924;-57
2022/11/08 05:16:22;;;;;;;;;;;;;;;6.75;80.51;97907.47;5121476;27;20372;-57
2022/11/08 05:18:51;;;;;;;;;;;;;;;6.71;80.92;97904.56;5118404;27;19935;-57
2022/11/08 05:24:07;;;;;;;;;;;;;;;6.50;81.38;97903.16;5121190;27;19923;-57
2022/11/08 05:26:36;;;;;;;;;;;;;;;6.68;80.63;97907.00;5117938;27;19923;-57
2022/11/08 05:29:04;;;;;;;;;;;;;;;6.73;80.30;97901.56;5122401;27;19943;-57
2022/11/08 05:31:32;;;;;;;;;;;;;;;6.52;80.84;97900.97;5118467;27;20296;-57
2022/11/08 05:34:01;;;;;;;;;;;;;;;6.57;80.93;97900.91;5122143;27;19993;-57
2022/11/08 05:36:33;;;;;;;;;;;;;;;6.57;80.56;97899.00;5123963;27;19923;-57
2022/11/08 05:39:01;;;;;;;;;;;;;;;6.64;79.90;97909.47;5120612;27;20287;-57
2022/11/08 05:41:53;;;;;;;;;;;;;;;6.41;80.94;97904.84;5122652;27;19927;-57
2022/11/08 05:44:22;;;;;;;;;;;;;;;6.50;80.61;97903.94;5124665;27;19928;-57
2022/11/08 05:46:50;;;;;;;;;;;;;;;6.42;80.43;97901.84;5124308;27;19924;-57
2022/11/08 05:49:22;;;;;;;;;;;;;;;6.37;80.48;97899.19;5112759;27;19923;-57
2022/11/08 05:51:52;;;;;;;;;;;;;;;6.30;80.57;97896.84;5133462;27;19923;-58
2022/11/08 05:54:21;;;;;;;;;;;;;;;6.25;80.87;97899.59;5136500;27;19927;-58
2022/11/08 05:56:49;;;;;;;;;;;;;;;6.41;80.55;97900.25;5124579;27;19976;-57
2022/11/08 05:59:17;;;;;;;;;;;;;;;6.39;80.37;97896.22;5126878;27;19927;-56
2022/11/08 06:04:38;;;;;;;;;;;;;;;6.34;80.36;97893.56;5129884;27;19928;-57
2022/11/08 06:07:07;;;;;;;;;;;;;;;6.39;80.12;97898.91;5139024;27;19923;-57
2022/11/08 06:09:36;;;;;;;;;;;;;;;6.31;80.08;97889.53;5112699;27;20425;-57
2022/11/08 06:12:04;;;;;;;;;;;;;;;6.29;80.34;97897.13;5129867;27;20269;-57
2022/11/08 06:14:32;;;;;;;;;;;;;;;6.36;79.87;97897.59;5138608;27;19969;-57
2022/11/08 06:17:00;;;;;;;;;;;;;;;6.30;79.56;97888.75;5123710;27;19923;-58
2022/11/08 06:19:28;;;;;;;;;;;;;;;6.35;80.15;97892.50;5127637;27;19931;-57
2022/11/08 06:21:56;;;;;;;;;;;;;;;6.39;79.73;97897.03;5116000;27;19923;-58
2022/11/08 06:24:26;;;;;;;;;;;;;;;6.41;79.39;97891.34;5114085;27;19930;-58
2022/11/08 06:27:20;;;;;;;;;;;;;;;6.42;79.48;97901.06;5136906;27;19923;-58
2022/11/08 06:29:49;;;;;;;;;;;;;;;6.39;79.37;97901.59;5142853;27;19930;-57
2022/11/08 06:32:16;;;;;;;;;;;;;;;6.25;79.71;97899.59;5123210;27;19924;-57
2022/11/08 06:34:45;;;;;;;;;;;;;;;6.25;80.13;97907.69;5136257;27;19927;-57
2022/11/08 06:37:37;;;;;;;;;;;;;;;6.26;80.49;97906.59;5133588;27;19931;-57
2022/11/08 06:40:32;;;;;;;;;;;;;;;6.28;80.54;97901.72;5128903;27;19934;-57
2022/11/08 06:43:01;;;;;;;;;;;;;;;6.19;81.16;97911.50;5111301;27;20444;-57
2022/11/08 06:45:32;;;;;;;;;;;;;;;6.37;80.48;97906.50;5124678;27;19930;-57
2022/11/08 06:48:01;;;;;;;;;;;;;;;6.46;79.83;97919.09;5133924;27;19930;-56
2022/11/08 06:50:30;;;;;;;;;;;;;;;6.48;79.57;97916.91;5133125;27;19923;-57
2022/11/08 06:52:58;;;;;;;;;;;;;;;6.48;79.80;97921.50;5133290;27;19923;-57
2022/11/08 06:55:29;;;;;;;;;;;;;;;6.43;80.24;97916.16;5134380;27;20010;-57
2022/11/08 06:57:57;;;;;;;;;;;;;;;6.19;80.99;97914.22;5138504;27;19930;-57
2022/11/08 07:00:27;;;;;;;;;;;;;;;6.29;80.92;97918.72;5127249;27;19927;-58
2022/11/08 07:02:56;;;;;;;;;;;;;;;6.21;81.40;97912.03;5133265;27;19927;-59
2022/11/08 07:05:24;;;;;;;;;;;;;;;6.27;81.17;97910.88;5137079;27;19931;-57
2022/11/08 07:07:52;;;;;;;;;;;;;;;6.50;80.57;97908.53;5138334;27;19927;-57
2022/11/08 07:10:21;;;;;;;;;;;;;;;6.48;80.78;97910.72;5136136;27;19934;-56
2022/11/08 07:12:50;;;;;;;;;;;;;;;6.58;79.90;97905.22;5131831;27;19930;-57
2022/11/08 07:15:18;;;;;;;;;;;;;;;6.46;80.76;97902.09;5130850;27;19927;-56
2022/11/08 07:18:13;;;;;;;;;;;;;;;6.59;80.41;97901.41;5131694;27;20273;-57
2022/11/08 07:20:43;;;;;;;;;;;;;;;6.64;80.00;97906.75;5132488;27;19931;-57
2022/11/08 07:23:12;;;;;;;;;;;;;;;6.66;80.01;97907.31;5123471;27;20380;-57
2022/11/08 07:25:42;;;;;;;;;;;;;;;6.77;79.41;97908.00;5135144;27;19924;-56
2022/11/08 07:31:05;;;;;;;;;;;;;;;6.74;79.66;97901.25;5128224;27;19931;-57
2022/11/08 07:33:33;;;;;;;;;;;;;;;6.79;79.65;97905.81;5120560;27;20387;-57
2022/11/08 07:36:03;;;;;;;;;;;;;;;6.91;79.18;97908.09;5132078;27;19927;-57
2022/11/08 07:38:31;;;;;;;;;;;;;;;6.98;78.70;97908.59;5138810;27;19927;-57
2022/11/08 07:40:59;;;;;;;;;;;;;;;6.97;78.75;97909.66;5135717;27;20287;-57
2022/11/08 07:43:28;;;;;;;;;;;;;;;7.04;78.96;97912.84;5113648;27;19924;-57
2022/11/08 07:46:07;;;;;;;;;;;;;;;7.12;78.74;97914.09;5103211;27;20008;-57
2022/11/08 07:48:36;;;;;;;;;;;;;;;7.17;78.43;97917.53;5122655;27;19923;-58
2022/11/08 07:51:05;;;;;;;;;;;;;;;7.19;78.26;97903.72;5135184;27;19923;-56
2022/11/08 07:53:33;;;;;;;;;;;;;;;7.24;78.37;97917.97;5131015;27;19928;-57
2022/11/08 07:56:02;;;;;;;;;;;;;;;7.27;78.41;97911.19;5143523;27;20354;-57
2022/11/08 07:58:30;;;;;;;;;;;;;;;7.29;78.71;97903.59;5122943;27;19934;-57
2022/11/08 08:01:00;;;;;;;;;;;;;;;7.23;78.76;97904.75;5130150;27;19924;-57
2022/11/08 08:03:29;;;;;;;;;;;;;;;7.41;78.63;97911.31;5132141;27;20547;-57
2022/11/08 08:05:57;;;;;;;;;;;;;;;7.52;78.12;97913.56;5132573;27;19939;-57
2022/11/08 08:08:29;;;;;;;;;;;;;;;7.45;78.64;97912.31;5133070;27;19931;-57
2022/11/08 08:10:59;;;;;;;;;;;;;;;7.51;78.30;97908.44;5127420;27;19924;-57
2022/11/08 08:13:27;;;;;;;;;;;;;;;7.60;78.04;97912.09;5121299;27;19976;-57
2022/11/08 08:16:00;;;;;;;;;;;;;;;7.69;77.77;97910.34;5115442;27;20434;-57
2022/11/08 08:18:28;;;;;;;;;;;;;;;7.86;77.75;97905.22;5130896;27;19931;-57
2022/11/08 08:20:57;;;;;;;;;;;;;;;7.90;77.68;97907.38;5138024;27;19977;-57
2022/11/08 08:23:25;;;;;;;;;;;;;;;8.01;76.94;97896.09;5131910;27;19923;-57
2022/11/08 08:25:55;;;;;;;;;;;;;;;8.24;76.88;97904.38;5132611;27;19935;-57
2022/11/08 08:28:24;;;;;;;;;;;;;;;8.39;76.86;97906.84;5132295;27;19931;-57
2022/11/08 08:30:52;;;;;;;;;;;;;;;8.41;76.73;97904.66;5132662;27;20017;-57
2022/11/08 08:33:21;;;;;;;;;;;;;;;8.63;76.13;97909.44;5141749;27;19928;-57
2022/11/08 08:36:00;;;;;;;;;;;;;;;8.78;75.90;97906.41;5108419;28;19969;-56
2022/11/08 08:38:29;;;;;;;;;;;;;;;8.93;75.46;97911.56;5135513;27;20018;-57
2022/11/08 08:40:59;;;;;;;;;;;;;;;9.08;74.50;97912.38;5132991;27;19923;-57
2022/11/08 08:43:27;;;;;;;;;;;;;;;9.14;73.79;97908.44;5123367;27;19931;-57
2022/11/08 08:45:58;;;;;;;;;;;;;;;9.26;73.46;97906.03;5121670;27;20014;-57
2022/11/08 08:48:26;;;;;;;;;;;;;;;9.46;73.47;97899.38;5124208;27;19938;-57
2022/11/08 08:50:55;;;;;;;;;;;;;;;9.54;73.03;97906.81;5127322;27;19946;-57
2022/11/08 08:53:23;;;;;;;;;;;;;;;9.60;72.55;97902.09;5112916;27;19924;-57
2022/11/08 08:55:54;;;;;;;;;;;;;;;9.66;72.52;97898.16;5124867;27;20018;-57
2022/11/08 08:58:24;;;;;;;;;;;;;;;9.61;71.56;97906.41;5103599;27;19931;-57
2022/11/08 09:00:54;;;;;;;;;;;;;;;9.71;71.76;97908.88;5125113;27;20466;-57
2022/11/08 09:03:42;;;;;;;;;;;;;;;9.79;71.76;97902.72;5123554;27;19927;-57
2022/11/08 09:06:10;;;;;;;;;;;;;;;9.79;71.94;97900.00;5128044;27;20352;-57
2022/11/08 09:08:38;;;;;;;;;;;;;;;9.80;71.06;97904.34;5131517;27;20364;-57
2022/11/08 09:11:06;;;;;;;;;;;;;;;9.80;70.12;97898.09;5126604;28;20295;-59
2022/11/08 09:13:36;;;;;;;;;;;;;;;9.94;70.29;97888.78;5127742;27;19923;-57
2022/11/08 09:19:46;;;;;;;;;;;;;;;10.30;68.88;97885.25;5129450;27;19934;-57
2022/11/08 09:22:14;;;;;;;;;;;;;;;10.52;68.18;97886.34;5123124;27;19938;-57
2022/11/08 09:24:42;;;;;;;;;;;;;;;10.48;66.58;97884.25;5114978;28;20280;-57
2022/11/08 09:27:10;;;;;;;;;;;;;;;10.51;67.64;97890.19;5122807;27;20402;-57
2022/11/08 09:29:41;;;;;;;;;;;;;;;10.57;67.16;97883.50;5132233;27;19932;-57
2022/11/08 09:32:08;;;;;;;;;;;;;;;10.41;67.26;97889.31;5125558;28;19928;-57
2022/11/08 09:34:36;;;;;;;;;;;;;;;10.34;66.87;97890.88;5131744;28;20395;-57
2022/11/08 09:37:29;;;;;;;;;;;;;;;10.43;66.56;97892.50;5133005;27;19927;-57
2022/11/08 09:39:58;;;;;;;;;;;;;;;10.46;66.09;97894.63;5125517;27;20026;-57
2022/11/08 09:42:45;;;;;;;;;;;;;;;10.45;66.30;97903.09;5116485;28;19930;-57
2022/11/08 09:45:31;;;;;;;;;;;;;;;10.47;66.36;97909.00;5132307;27;20380;-57
2022/11/08 09:48:01;;;;;;;;;;;;;;;10.44;67.40;97905.00;5124625;27;19924;-57
2022/11/08 09:50:34;;;;;;;;;;;;;;;10.54;66.34;97898.50;5131526;27;20453;-57
2022/11/08 09:53:06;;;;;;;;;;;;;;;10.65;66.40;97888.16;5133153;27;19930;-57
2022/11/08 09:55:36;;;;;;;;;;;;;;;10.74;65.43;97880.84;5129473;27;19934;-57
2022/11/08 09:58:06;;;;;;;;;;;;;;;10.71;65.19;97885.00;5125281;27;19927;-58
2022/11/08 10:00:35;;;;;;;;;;;;;;;10.68;64.86;97884.84;5127582;27;19930;-57
2022/11/08 10:03:04;;;;;;;;;;;;;;;10.77;64.78;97880.25;5122932;27;19930;-57
2022/11/08 10:05:34;;;;;;;;;;;;;;;10.82;64.85;97890.97;5132591;27;19930;-57
2022/11/08 10:08:04;;;;;;;;;;;;;;;10.77;64.04;97888.41;5133505;27;19931;-57
2022/11/08 10:13:49;;;;;;;;;;;;;;;10.99;64.22;97895.69;5132211;27;20359;-57
2022/11/08 10:16:19;;;;;;;;;;;;;;;11.00;63.66;97895.34;5133194;27;20032;-56
2022/11/08 10:18:54;;;;;;;;;;;;;;;11.00;64.14;97891.84;5129774;27;19991;-57
2022/11/08 10:21:36;;;;;;;;;;;;;;;10.94;63.25;97887.66;5133389;27;19923;-57
2022/11/08 10:24:54;;;;;;;;;;;;;;;11.06;64.18;97879.72;5126595;27;19982;-57
2022/11/08 10:27:24;;;;;;;;;;;;;;;11.13;63.16;97873.81;5132645;27;19969;-57
2022/11/08 10:29:53;;;;;;;;;;;;;;;11.17;63.22;97874.78;5125709;27;19958;-58
2022/11/08 10:32:23;;;;;;;;;;;;;;;11.30;62.68;97868.44;5135003;27;20382;-57
2022/11/08 10:34:56;;;;;;;;;;;;;;;11.30;62.86;97870.34;5119955;27;19972;-57
2022/11/08 10:37:25;;;;;;;;;;;;;;;11.42;63.31;97870.53;5134474;27;19934;-57
2022/11/08 10:39:55;;;;;;;;;;;;;;;11.51;62.26;97866.72;5137670;27;19923;-57
2022/11/08 10:42:25;;;;;;;;;;;;;;;11.47;62.33;97863.00;5127909;27;19923;-57
2022/11/08 10:44:54;;;;;;;;;;;;;;;11.52;62.52;97870.22;5131627;27;19927;-57
2022/11/08 10:47:23;;;;;;;;;;;;;;;11.68;62.33;97870.56;5133387;27;19923;-56
2022/11/08 10:49:53;;;;;;;;;;;;;;;11.69;61.23;97858.56;5138433;27;19927;-57
2022/11/08 10:52:55;;;;;;;;;;;;;;;11.70;61.35;97871.03;5134921;27;19929;-57
2022/11/08 10:55:25;;;;;;;;;;;;;;;11.65;62.08;97869.25;5109618;27;20452;-57
2022/11/08 10:57:53;;;;;;;;;;;;;;;11.61;61.50;97859.34;5134909;27;19938;-57
2022/11/08 11:00:27;;;;;;;;;;;;;;;11.65;61.08;97855.66;5130556;27;20827;-57
2022/11/08 11:02:56;;;;;;;;;;;;;;;11.70;61.12;97851.97;5134603;27;19929;-57
2022/11/08 11:05:29;;;;;;;;;;;;;;;11.74;61.60;97839.34;5129670;27;19931;-56
2022/11/08 11:08:00;;;;;;;;;;;;;;;11.87;60.71;97827.50;5131350;27;20013;-57
2022/11/08 11:10:29;;;;;;;;;;;;;;;11.93;60.42;97806.34;5115289;27;20348;-57
2022/11/08 11:13:01;;;;;;;;;;;;;;;11.98;60.25;97815.16;5115044;27;19931;-57
2022/11/08 11:15:37;;;;;;;;;;;;;;;12.06;61.17;97830.69;5115112;27;20403;-57
2022/11/08 11:18:06;;;;;;;;;;;;;;;12.13;60.27;97829.41;5130066;27;19957;-57
2022/11/08 11:20:34;;;;;;;;;;;;;;;12.16;60.48;97828.78;5142572;27;19923;-57
2022/11/08 11:23:05;;;;;;;;;;;;;;;12.22;60.43;97843.81;5131742;27;19932;-57
2022/11/08 11:25:33;;;;;;;;;;;;;;;12.28;59.56;97837.06;5131737;27;19968;-57
2022/11/08 11:28:01;;;;;;;;;;;;;;;12.36;59.60;97833.53;5131836;27;19947;-57
2022/11/08 11:30:30;;;;;;;;;;;;;;;12.42;59.92;97832.22;5134860;27;20343;-59
2022/11/08 11:33:03;;;;;;;;;;;;;;;12.47;59.58;97829.34;5133810;27;20299;-56
2022/11/08 11:35:34;;;;;;;;;;;;;;;12.55;58.10;97824.97;5138580;27;19969;-57
2022/11/08 11:38:28;;;;;;;;;;;;;;;12.61;58.92;97823.66;5143996;27;19927;-56
2022/11/08 11:40:59;;;;;;;;;;;;;;;12.72;58.50;97821.38;5132147;27;19934;-56
2022/11/08 11:43:29;;;;;;;;;;;;;;;12.76;57.95;97827.78;5135737;27;19923;-57
2022/11/08 11:45:58;;;;;;;;;;;;;;;12.79;58.87;97829.84;5123493;27;19930;-56
2022/11/08 11:48:27;;;;;;;;;;;;;;;12.83;58.39;97830.78;5130598;27;20482;-56
2022/11/08 11:50:57;;;;;;;;;;;;;;;12.77;58.20;97827.44;5120145;27;19934;-56
2022/11/08 11:53:26;;;;;;;;;;;;;;;12.69;57.65;97824.78;5134791;27;19923;-57
2022/11/08 11:56:18;;;;;;;;;;;;;;;12.64;58.26;97822.22;5132076;27;19927;-56
2022/11/08 11:58:56;;;;;;;;;;;;;;;12.68;58.57;97823.97;5120414;27;20026;-56
2022/11/08 12:01:27;;;;;;;;;;;;;;;12.73;58.06;97820.25;5130869;27;19931;-56
2022/11/08 12:04:00;;;;;;;;;;;;;;;12.80;57.99;97809.66;5129847;27;19939;-57
2022/11/08 12:06:30;;;;;;;;;;;;;;;12.87;57.98;97809.91;5117892;27;19930;-56
2022/11/08 12:09:05;;;;;;;;;;;;;;;12.81;58.72;97801.13;5132333;27;20318;-57
2022/11/08 12:11:37;;;;;;;;;;;;;;;12.83;58.15;97800.78;5132856;27;19931;-56
2022/11/08 12:14:30;;;;;;;;;;;;;;;12.84;58.10;97795.03;5128890;27;19973;-57
2022/11/08 12:17:06;;;;;;;;;;;;;;;12.84;58.74;97800.47;5134868;27;19946;-57
2022/11/08 12:19:37;;;;;;;;;;;;;;;12.87;58.30;97799.00;5124932;27;19930;-57
2022/11/08 12:22:30;;;;;;;;;;;;;;;12.94;58.05;97793.84;5138961;27;19987;-56
2022/11/08 12:25:00;;;;;;;;;;;;;;;13.04;57.41;97793.47;5151035;27;19931;-56
2022/11/08 12:27:31;;;;;;;;;;;;;;;13.03;58.32;97791.88;5136710;27;19924;-56
2022/11/08 12:30:01;;;;;;;;;;;;;;;12.99;57.60;97784.66;5118015;27;19931;-57
2022/11/08 12:32:37;;;;;;;;;;;;;;;12.99;58.16;97790.13;5120553;27;19924;-57
2022/11/08 12:35:12;;;;;;;;;;;;;;;12.96;57.77;97785.34;5132781;27;19946;-57
2022/11/08 12:37:44;;;;;;;;;;;;;;;12.90;58.27;97783.94;5118972;27;19931;-56
2022/11/08 12:40:16;;;;;;;;;;;;;;;12.82;57.50;97786.38;5133013;27;19927;-57
2022/11/08 12:42:48;;;;;;;;;;;;;;;12.80;58.12;97782.38;5128322;27;19923;-57
2022/11/08 12:45:19;;;;;;;;;;;;;;;12.79;58.66;97780.78;5128325;27;19927;-56
2022/11/08 12:50:44;;;;;;;;;;;;;;;12.82;58.66;97772.72;5112637;27;19924;-57
2022/11/08 12:53:22;;;;;;;;;;;;;;;12.80;58.49;97772.28;5140245;27;20303;-56
2022/11/08 12:55:50;;;;;;;;;;;;;;;12.74;58.73;97778.25;5131786;27;19924;-58
2022/11/08 12:58:23;;;;;;;;;;;;;;;12.73;58.66;97763.81;5131490;27;19923;-56
2022/11/08 13:00:52;;;;;;;;;;;;;;;12.70;58.44;97760.94;5123362;27;19963;-57
2022/11/08 13:03:27;;;;;;;;;;;;;;;12.70;58.63;97759.00;5132757;27;20406;-56
2022/11/08 13:05:57;;;;;;;;;;;;;;;12.67;58.56;97756.13;5106783;28;19924;-56
2022/11/08 13:08:26;;;;;;;;;;;;;;;12.62;59.75;97764.50;5136725;27;19931;-56
2022/11/08 13:10:56;;;;;;;;;;;;;;;12.71;59.82;97766.06;5118834;28;19927;-57
2022/11/08 13:13:27;;;;;;;;;;;;;;;12.76;59.38;97765.88;5131120;27;19935;-56
2022/11/08 13:16:10;;;;;;;;;;;;;;;12.82;59.61;97763.75;5114186;28;19924;-56
2022/11/08 13:18:45;;;;;;;;;;;;;;;12.87;58.29;97760.84;5106765;28;19954;-57
2022/11/08 13:21:36;;;;;;;;;;;;;;;12.85;59.11;97765.84;5110978;28;19923;-57
2022/11/08 13:24:23;;;;;;;;;;;;;;;12.74;59.50;97770.06;5108492;28;19947;-56
2022/11/08 13:27:23;;;;;;;;;;;;;;;12.68;59.90;97765.94;5124223;27;19972;-56
2022/11/08 13:29:51;;;;;;;;;;;;;;;12.61;60.13;97768.34;5143352;27;19927;-57
2022/11/08 13:32:21;;;;;;;;;;;;;;;12.56;60.45;97764.69;5135656;27;19931;-56
2022/11/08 13:34:56;;;;;;;;;;;;;;;12.54;60.88;97764.22;5145932;27;19923;-57
2022/11/08 13:37:29;;;;;;;;;;;;;;;12.51;61.54;97759.41;5131936;27;19931;-56
2022/11/08 13:40:02;;;;;;;;;;;;;;;12.48;61.94;97759.28;5131899;27;20686;-56
2022/11/08 13:42:41;;;;;;;;;;;;;;;12.51;61.83;97756.69;5117402;27;19969;-56
2022/11/08 13:45:23;;;;;;;;;;;;;;;12.48;61.48;97753.84;5129820;27;19931;-56
2022/11/08 13:48:16;;;;;;;;;;;;;;;12.48;61.42;97754.63;5146550;27;19971;-56
2022/11/08 13:50:55;;;;;;;;;;;;;;;12.49;61.62;97767.13;5123764;27;19930;-57
2022/11/08 13:56:44;;;;;;;;;;;;;;;12.52;62.35;97754.78;5129507;27;19927;-57
2022/11/08 13:59:46;;;;;;;;;;;;;;;12.56;61.86;97753.78;5127155;27;19977;-57
2022/11/08 14:02:30;;;;;;;;;;;;;;;12.66;61.54;97754.53;5048226;28;19924;-57
2022/11/08 14:05:14;;;;;;;;;;;;;;;12.65;61.33;97747.50;5056408;28;19925;-57
2022/11/08 14:07:47;;;;;;;;;;;;;;;12.64;61.69;97757.59;5047863;28;19987;-57
2022/11/08 14:10:16;;;;;;;;;;;;;;;12.68;62.25;97758.56;5058130;28;19932;-57
2022/11/08 14:12:48;;;;;;;;;;;;;;;12.65;62.33;97752.94;5044727;28;19936;-57